createdAt,value
2019-04-01T00:01:12.502Z,89.50
2019-04-01T00:03:41.955Z,89.60
2019-04-01T00:06:11.614Z,89.80
2019-04-01T00:08:40.853Z,89.80
2019-04-01T00:11:10.131Z,90.10
2019-04-01T00:13:39.456Z,90.10
2019-04-01T00:16:09.219Z,90.20
2019-04-01T00:18:42.387Z,90.10
2019-04-01T00:21:11.638Z,90.40
2019-04-01T00:23:40.953Z,90.60
2019-04-01T00:26:10.187Z,90.50
2019-04-01T00:28:39.446Z,90.40
2019-04-01T00:31:08.644Z,90.60
2019-04-01T00:33:38.273Z,90.80
2019-04-01T00:36:07.472Z,90.70
2019-04-01T00:38:37.046Z,90.80
2019-04-01T00:41:06.334Z,90.90
2019-04-01T00:44:00.764Z,90.70
2019-04-01T00:46:31.823Z,90.90
2019-04-01T00:49:01.320Z,91.20
2019-04-01T00:51:30.590Z,91.50
2019-04-01T00:53:59.811Z,91.80
2019-04-01T00:56:29.363Z,92.00
2019-04-01T00:58:58.685Z,92.10
2019-04-01T01:01:27.952Z,92.30
2019-04-01T01:03:57.224Z,92.30
2019-04-01T01:06:27.200Z,92.30
2019-04-01T01:08:56.513Z,92.20
2019-04-01T01:11:25.770Z,92.20
2019-04-01T01:13:55.160Z,92.30
2019-04-01T01:16:24.752Z,92.20
2019-04-01T01:18:54.250Z,92.30
2019-04-01T01:21:23.748Z,92.40
2019-04-01T01:23:53.716Z,92.80
2019-04-01T01:26:23.251Z,93.10
2019-04-01T01:28:52.405Z,92.90
2019-04-01T01:31:21.643Z,93.00
2019-04-01T01:33:50.921Z,92.80
2019-04-01T01:36:20.135Z,92.60
2019-04-01T01:38:49.455Z,92.80
2019-04-01T01:41:18.714Z,92.80
2019-04-01T01:43:47.909Z,92.70
2019-04-01T01:46:17.459Z,92.90
2019-04-01T01:48:46.709Z,93.20
2019-04-01T01:51:15.941Z,93.40
2019-04-01T01:53:45.485Z,93.40
2019-04-01T01:56:15.111Z,93.30
2019-04-01T01:58:44.360Z,93.30
2019-04-01T02:01:13.585Z,93.40
2019-04-01T02:03:42.721Z,93.60
2019-04-01T02:06:12.604Z,93.70
2019-04-01T02:08:41.850Z,93.80
2019-04-01T02:11:11.074Z,93.90
2019-04-01T02:13:40.358Z,93.80
2019-04-01T02:16:09.538Z,93.90
2019-04-01T02:18:39.940Z,93.80
2019-04-01T02:21:10.424Z,94.00
2019-04-01T02:23:39.888Z,94.10
2019-04-01T02:26:09.087Z,94.20
2019-04-01T02:28:38.423Z,94.40
2019-04-01T02:31:07.646Z,94.80
2019-04-01T02:33:37.330Z,94.50
2019-04-01T02:36:06.522Z,94.40
2019-04-01T02:38:35.722Z,94.90
2019-04-01T02:41:06.539Z,94.90
2019-04-01T02:43:36.168Z,95.10
2019-04-01T02:46:05.373Z,95.10
2019-04-01T02:48:34.663Z,95.30
2019-04-01T02:51:04.137Z,95.30
2019-04-01T02:53:33.379Z,95.40
2019-04-01T02:56:02.526Z,95.20
2019-04-01T02:58:31.737Z,95.10
2019-04-01T03:01:01.277Z,95.10
2019-04-01T03:03:30.464Z,95.30
2019-04-01T03:05:59.698Z,95.40
2019-04-01T03:08:28.958Z,95.20
2019-04-01T03:10:58.203Z,95.20
2019-04-01T03:13:27.432Z,95.00
2019-04-01T03:15:56.663Z,95.10
2019-04-01T03:18:25.914Z,95.00
2019-04-01T03:20:55.149Z,95.10
2019-04-01T03:23:24.461Z,95.20
2019-04-01T03:25:53.732Z,95.60
2019-04-01T03:28:22.930Z,95.50
2019-04-01T03:30:52.438Z,95.90
2019-04-01T03:33:22.136Z,96.00
2019-04-01T03:35:51.653Z,96.10
2019-04-01T03:38:20.897Z,96.40
2019-04-01T03:40:50.161Z,96.40
2019-04-01T03:43:19.354Z,96.70
2019-04-01T03:45:48.555Z,96.90
2019-04-01T03:48:17.748Z,97.20
2019-04-01T03:50:46.991Z,97.20
2019-04-01T03:53:16.244Z,97.20
2019-04-01T03:55:45.477Z,97.30
2019-04-01T03:58:14.735Z,97.20
2019-04-01T04:00:44.023Z,97.20
2019-04-01T04:03:13.272Z,97.40
2019-04-01T04:05:42.823Z,97.30
2019-04-01T04:08:12.088Z,97.40
2019-04-01T04:10:41.877Z,97.60
2019-04-01T04:13:11.177Z,97.60
2019-04-01T04:15:40.443Z,98.00
2019-04-01T04:18:09.912Z,98.00
2019-04-01T04:20:39.143Z,98.20
2019-04-01T04:23:08.295Z,98.40
2019-04-01T04:25:39.014Z,98.50
2019-04-01T04:28:09.045Z,98.80
2019-04-01T04:30:38.582Z,99.20
2019-04-01T04:33:08.808Z,99.00
2019-04-01T04:35:37.979Z,99.10
2019-04-01T04:38:07.395Z,98.60
2019-04-01T04:40:40.681Z,98.80
2019-04-01T04:43:10.127Z,99.10
2019-04-01T04:45:40.188Z,99.10
2019-04-01T04:48:09.442Z,99.30
2019-04-01T04:50:39.118Z,99.00
2019-04-01T04:53:08.381Z,98.90
2019-04-01T04:55:38.084Z,98.90
2019-04-01T04:58:07.352Z,99.00
2019-04-01T05:00:36.682Z,99.20
2019-04-01T05:03:05.922Z,99.30
2019-04-01T05:05:35.668Z,99.30
2019-04-01T05:08:05.386Z,99.30
2019-04-01T05:10:34.755Z,99.00
2019-04-01T05:13:04.068Z,98.90
2019-04-01T05:15:33.264Z,99.10
2019-04-01T05:18:02.725Z,98.80
2019-04-01T05:20:32.960Z,98.80
2019-04-01T05:23:03.006Z,98.90
2019-04-01T05:25:33.497Z,99.10
2019-04-01T05:28:04.731Z,99.00
2019-04-01T05:30:37.039Z,99.30
2019-04-01T05:33:09.482Z,99.30
2019-04-01T05:35:39.379Z,99.30
2019-04-01T05:38:10.083Z,99.00
2019-04-01T05:40:39.754Z,98.70
2019-04-01T05:43:10.582Z,98.70
2019-04-01T05:45:40.346Z,98.40
2019-04-01T05:48:11.477Z,98.20
2019-04-01T05:50:42.483Z,98.20
2019-04-01T05:53:13.268Z,98.00
2019-04-01T05:55:45.492Z,97.80
2019-04-01T05:58:16.687Z,97.40
2019-04-01T06:00:52.886Z,97.10
2019-04-01T06:03:23.491Z,97.10
2019-04-01T06:05:54.806Z,96.90
2019-04-01T06:08:24.064Z,96.70
2019-04-01T06:10:53.524Z,96.20
2019-04-01T06:13:23.106Z,96.00
2019-04-01T06:15:53.320Z,95.60
2019-04-01T06:18:22.607Z,95.20
2019-04-01T06:20:52.622Z,94.90
2019-04-01T06:23:25.911Z,94.80
2019-04-01T06:25:55.510Z,94.40
2019-04-01T06:28:24.736Z,94.20
2019-04-01T06:30:57.291Z,93.60
2019-04-01T06:33:27.463Z,93.50
2019-04-01T06:36:01.316Z,92.80
2019-04-01T06:38:32.040Z,92.80
2019-04-01T06:41:01.203Z,91.90
2019-04-01T06:43:31.627Z,91.70
2019-04-01T06:46:01.697Z,91.30
2019-04-01T06:48:32.317Z,91.10
2019-04-01T06:51:01.468Z,91.30
2019-04-01T06:53:33.399Z,91.40
2019-04-01T06:56:04.535Z,91.30
2019-04-01T06:58:35.118Z,90.10
2019-04-01T07:01:05.118Z,90.00
2019-04-01T07:03:34.944Z,89.10
2019-04-01T07:06:10.127Z,89.00
2019-04-01T07:08:44.313Z,89.00
2019-04-01T07:11:14.931Z,88.20
2019-04-01T07:13:46.833Z,88.10
2019-04-01T07:16:16.326Z,88.20
2019-04-01T07:18:45.684Z,87.90
2019-04-01T07:21:18.416Z,87.70
2019-04-01T07:23:56.305Z,87.80
2019-04-01T07:26:28.066Z,88.20
2019-04-01T07:29:01.114Z,88.70
2019-04-01T07:31:30.774Z,88.30
2019-04-01T07:34:04.295Z,88.30
2019-04-01T07:36:36.042Z,86.90
2019-04-01T07:39:08.619Z,85.60
2019-04-01T07:41:38.365Z,85.50
2019-04-01T07:44:10.238Z,85.40
2019-04-01T07:46:40.225Z,85.30
2019-04-01T07:49:10.024Z,85.30
2019-04-01T07:51:39.428Z,85.40
2019-04-01T07:54:09.318Z,84.60
2019-04-01T07:56:41.848Z,84.10
2019-04-01T07:59:11.515Z,84.00
2019-04-01T08:01:43.938Z,84.30
2019-04-01T08:04:16.933Z,84.30
2019-04-01T08:06:46.783Z,84.20
2019-04-01T08:09:15.969Z,83.00
2019-04-01T08:11:49.777Z,83.10
2019-04-01T08:14:17.290Z,83.30
2019-04-01T08:16:47.231Z,82.50
2019-04-01T08:19:18.290Z,81.90
2019-04-01T08:21:52.449Z,81.40
2019-04-01T08:24:24.372Z,80.30
2019-04-01T08:26:54.720Z,80.30
2019-04-01T08:29:30.443Z,80.50
2019-04-01T08:31:56.866Z,79.70
2019-04-01T08:34:26.534Z,79.20
2019-04-01T08:36:58.836Z,78.90
2019-04-01T08:39:30.899Z,77.70
2019-04-01T08:42:00.107Z,76.10
2019-04-01T08:44:30.650Z,75.90
2019-04-01T08:47:08.201Z,75.70
2019-04-01T08:49:37.675Z,75.60
2019-04-01T08:52:08.896Z,75.20
2019-04-01T08:54:44.489Z,75.20
2019-04-01T08:57:15.548Z,75.00
2019-04-01T08:59:47.335Z,73.80
2019-04-01T09:02:18.727Z,74.60
2019-04-01T09:04:48.083Z,73.90
2019-04-01T09:07:20.318Z,73.40
2019-04-01T09:09:52.020Z,72.90
2019-04-01T09:12:22.476Z,72.60
2019-04-01T09:14:52.994Z,72.20
2019-04-01T09:17:25.405Z,71.20
2019-04-01T09:20:00.608Z,72.70
2019-04-01T09:22:31.482Z,73.00
2019-04-01T09:25:03.619Z,70.70
2019-04-01T09:27:32.850Z,70.50
2019-04-01T09:30:03.382Z,71.30
2019-04-01T09:32:34.414Z,69.90
2019-04-01T09:35:03.913Z,70.40
2019-04-01T09:37:33.663Z,71.50
2019-04-01T09:40:08.339Z,69.60
2019-04-01T09:42:37.593Z,70.80
2019-04-01T09:45:11.013Z,69.20
2019-04-01T09:47:40.465Z,69.10
2019-04-01T09:50:11.531Z,68.50
2019-04-01T09:52:42.492Z,69.20
2019-04-01T09:55:16.412Z,68.90
2019-04-01T09:57:49.453Z,68.20
2019-04-01T10:00:20.636Z,69.60
2019-04-01T10:02:50.036Z,68.40
2019-04-01T10:05:21.495Z,68.10
2019-04-01T10:07:51.952Z,66.50
2019-04-01T10:10:21.310Z,67.20
2019-04-01T10:12:50.562Z,66.90
2019-04-01T10:15:23.030Z,66.40
2019-04-01T10:17:57.041Z,66.70
2019-04-01T10:20:26.630Z,65.40
2019-04-01T10:22:58.284Z,65.10
2019-04-01T10:25:33.019Z,63.50
2019-04-01T10:28:03.630Z,64.90
2019-04-01T10:30:32.893Z,65.10
2019-04-01T10:33:04.046Z,64.60
2019-04-01T10:35:33.589Z,64.20
2019-04-01T10:38:04.384Z,64.30
2019-04-01T10:40:35.036Z,63.90
2019-04-01T10:43:06.767Z,63.70
2019-04-01T10:45:36.033Z,63.70
2019-04-01T10:48:06.313Z,62.40
2019-04-01T10:50:38.920Z,61.90
2019-04-01T10:53:13.847Z,61.80
2019-04-01T10:55:43.541Z,60.60
2019-04-01T10:58:13.196Z,58.40
2019-04-01T11:00:43.090Z,60.10
2019-04-01T11:03:16.356Z,58.00
2019-04-01T11:05:47.974Z,57.80
2019-04-01T11:08:21.205Z,58.50
2019-04-01T11:10:51.392Z,57.60
2019-04-01T11:13:21.907Z,57.30
2019-04-01T11:15:54.691Z,56.70
2019-04-01T11:18:30.601Z,57.20
2019-04-01T11:20:59.971Z,55.30
2019-04-01T11:23:30.839Z,55.70
2019-04-01T11:26:02.986Z,57.00
2019-04-01T11:28:36.870Z,58.00
2019-04-01T11:31:08.639Z,53.60
2019-04-01T11:33:40.298Z,53.50
2019-04-01T11:36:10.302Z,54.60
2019-04-01T11:38:41.148Z,53.50
2019-04-01T11:41:11.040Z,51.80
2019-04-01T11:43:40.518Z,53.00
2019-04-01T11:46:12.506Z,48.30
2019-04-01T11:48:41.988Z,44.60
2019-04-01T11:51:15.069Z,42.70
2019-04-01T11:53:45.938Z,39.10
2019-04-01T11:56:20.720Z,35.80
2019-04-01T11:58:49.916Z,34.10
2019-04-01T12:01:26.367Z,33.00
2019-04-01T12:04:00.347Z,33.30
2019-04-01T12:06:29.699Z,32.60
2019-04-01T12:09:01.172Z,32.50
2019-04-01T12:11:36.844Z,32.20
2019-04-01T12:14:06.281Z,32.20
2019-04-01T12:16:35.646Z,30.70
2019-04-01T12:19:06.540Z,31.30
2019-04-01T12:21:41.273Z,30.30
2019-04-01T12:24:10.463Z,31.30
2019-04-01T12:26:43.015Z,30.00
2019-04-01T12:29:13.606Z,32.10
2019-04-01T12:31:43.659Z,31.30
2019-04-01T12:34:13.285Z,30.00
2019-04-01T12:36:42.559Z,28.20
2019-04-01T12:39:11.788Z,27.80
2019-04-01T12:41:43.163Z,27.80
2019-04-01T12:44:12.453Z,27.20
2019-04-01T12:46:42.995Z,27.30
2019-04-01T12:49:13.598Z,28.20
2019-04-01T12:51:45.873Z,29.40
2019-04-01T12:54:15.605Z,29.60
2019-04-01T12:56:44.817Z,26.90
2019-04-01T12:59:14.093Z,27.20
2019-04-01T13:01:43.638Z,27.30
2019-04-01T13:04:13.579Z,26.70
2019-04-01T13:06:42.877Z,26.60
2019-04-01T13:09:12.277Z,27.30
2019-04-01T13:11:41.538Z,26.30
2019-04-01T13:14:11.438Z,27.60
2019-04-01T13:16:40.884Z,29.00
2019-04-01T13:19:10.108Z,27.00
2019-04-01T13:21:40.081Z,26.70
2019-04-01T13:24:09.863Z,29.40
2019-04-01T13:26:39.008Z,31.60
2019-04-01T13:29:11.731Z,33.40
2019-04-01T13:31:41.228Z,32.90
2019-04-01T13:34:10.444Z,32.00
2019-04-01T13:36:39.719Z,31.00
2019-04-01T13:39:09.340Z,32.30
2019-04-01T13:41:42.751Z,33.40
2019-04-01T13:44:09.541Z,33.00
2019-04-01T13:46:38.790Z,33.80
2019-04-01T13:49:07.940Z,33.70
2019-04-01T13:51:37.087Z,33.50
2019-04-01T13:54:09.076Z,31.20
2019-04-01T13:56:37.614Z,30.70
2019-04-01T13:59:09.590Z,32.00
2019-04-01T14:01:37.717Z,33.10
2019-04-01T14:04:07.684Z,34.50
2019-04-01T14:06:36.845Z,32.60
2019-04-01T14:09:07.135Z,33.70
2019-04-01T14:11:37.047Z,33.60
2019-04-01T14:14:06.285Z,32.50
2019-04-01T14:16:35.775Z,31.80
2019-04-01T14:19:04.935Z,31.70
2019-04-01T14:21:34.189Z,30.80
2019-04-01T14:24:03.311Z,28.80
2019-04-01T14:26:32.492Z,29.70
2019-04-01T14:29:01.731Z,29.60
2019-04-01T14:31:31.096Z,30.10
2019-04-01T14:34:01.242Z,31.10
2019-04-01T14:36:31.120Z,32.10
2019-04-01T14:39:00.349Z,32.90
2019-04-01T14:41:30.887Z,34.80
2019-04-01T14:44:00.431Z,34.40
2019-04-01T14:46:29.716Z,32.00
2019-04-01T14:49:00.454Z,29.50
2019-04-01T14:51:30.003Z,31.60
2019-04-01T14:53:59.207Z,33.30
2019-04-01T14:56:28.914Z,33.10
2019-04-01T14:58:58.138Z,32.90
2019-04-01T15:01:27.657Z,31.00
2019-04-01T15:03:56.890Z,30.20
2019-04-01T15:06:26.062Z,30.60
2019-04-01T15:08:55.696Z,31.50
2019-04-01T15:11:25.143Z,30.50
2019-04-01T15:13:54.413Z,29.50
2019-04-01T15:16:23.632Z,29.70
2019-04-01T15:18:53.167Z,29.90
2019-04-01T15:21:22.361Z,30.00
2019-04-01T15:23:53.334Z,29.10
2019-04-01T15:26:22.527Z,29.10
2019-04-01T15:28:52.261Z,30.10
2019-04-01T15:31:21.754Z,32.00
2019-04-01T15:33:50.983Z,31.40
2019-04-01T15:36:20.423Z,31.40
2019-04-01T15:38:50.199Z,30.20
2019-04-01T15:41:20.731Z,30.20
2019-04-01T15:43:49.931Z,34.70
2019-04-01T15:46:19.067Z,34.40
2019-04-01T15:48:48.967Z,34.50
2019-04-01T15:51:18.553Z,33.20
2019-04-01T15:53:47.775Z,34.10
2019-04-01T15:56:16.983Z,35.50
2019-04-01T15:58:50.551Z,35.80
2019-04-01T16:01:18.122Z,36.60
2019-04-01T16:03:47.393Z,37.90
2019-04-01T16:06:16.687Z,39.50
2019-04-01T16:08:46.282Z,39.10
2019-04-01T16:11:15.487Z,38.60
2019-04-01T16:13:45.125Z,37.80
2019-04-01T16:16:14.843Z,36.00
2019-04-01T16:18:44.328Z,35.10
2019-04-01T16:21:13.532Z,33.90
2019-04-01T16:23:42.734Z,33.90
2019-04-01T16:26:12.325Z,34.70
2019-04-01T16:28:41.638Z,36.10
2019-04-01T16:31:10.865Z,36.30
2019-04-01T16:33:40.105Z,37.90
2019-04-01T16:36:09.301Z,37.00
2019-04-01T16:38:38.598Z,38.00
2019-04-01T16:41:07.755Z,37.60
2019-04-01T16:43:38.321Z,37.20
2019-04-01T16:46:07.727Z,36.80
2019-04-01T16:48:38.416Z,37.20
2019-04-01T16:51:08.204Z,38.20
2019-04-01T16:53:37.468Z,39.50
2019-04-01T16:56:06.771Z,40.70
2019-04-01T16:58:36.170Z,41.30
2019-04-01T17:01:05.474Z,42.30
2019-04-01T17:03:34.791Z,41.90
2019-04-01T17:06:04.034Z,42.30
2019-04-01T17:08:34.398Z,43.80
2019-04-01T17:11:03.827Z,43.80
2019-04-01T17:13:33.059Z,44.80
2019-04-01T17:16:02.977Z,46.30
2019-04-01T17:18:32.893Z,47.00
2019-04-01T17:21:02.555Z,49.60
2019-04-01T17:23:31.883Z,50.30
2019-04-01T17:26:01.244Z,51.00
2019-04-01T17:28:31.459Z,50.90
2019-04-01T17:31:00.779Z,52.00
2019-04-01T17:33:30.117Z,53.40
2019-04-01T17:35:59.410Z,54.90
2019-04-01T17:38:28.912Z,56.50
2019-04-01T17:40:58.155Z,57.60
2019-04-01T17:43:28.522Z,58.90
2019-04-01T17:45:58.481Z,59.00
2019-04-01T17:48:28.272Z,59.70
2019-04-01T17:50:58.120Z,60.40
2019-04-01T17:53:27.739Z,61.20
2019-04-01T17:55:57.008Z,61.50
2019-04-01T17:58:26.292Z,62.10
2019-04-01T18:00:57.615Z,62.70
2019-04-01T18:03:26.948Z,62.90
2019-04-01T18:05:56.200Z,63.40
2019-04-01T18:08:25.446Z,64.00
2019-04-01T18:10:54.877Z,64.00
2019-04-01T18:13:24.637Z,64.40
2019-04-01T18:15:57.132Z,64.50
2019-04-01T18:18:27.036Z,64.60
2019-04-01T18:20:56.143Z,64.90
2019-04-01T18:23:26.495Z,64.80
2019-04-01T18:25:56.060Z,64.70
2019-04-01T18:28:25.410Z,64.80
2019-04-01T18:30:54.854Z,65.70
2019-04-01T18:33:24.408Z,65.70
2019-04-01T18:35:54.368Z,65.70
2019-04-01T18:41:06.781Z,64.90
2019-04-01T18:43:36.656Z,65.50
2019-04-01T18:46:06.269Z,65.20
2019-04-01T18:48:35.985Z,65.70
2019-04-01T18:51:06.188Z,65.70
2019-04-01T18:53:36.306Z,65.60
2019-04-01T18:56:05.991Z,65.90
2019-04-01T18:58:35.276Z,66.20
2019-04-01T19:01:04.968Z,67.00
2019-04-01T19:03:34.561Z,67.10
2019-04-01T19:06:03.876Z,67.00
2019-04-01T19:08:33.559Z,67.00
2019-04-01T19:11:02.977Z,67.30
2019-04-01T19:13:32.211Z,67.70
2019-04-01T19:16:03.249Z,67.70
2019-04-01T19:18:32.592Z,67.60
2019-04-01T19:21:04.864Z,67.90
2019-04-01T19:23:33.555Z,68.30
2019-04-01T19:26:02.860Z,68.50
2019-04-01T19:28:32.443Z,68.30
2019-04-01T19:31:01.684Z,68.40
2019-04-01T19:33:30.940Z,68.40
2019-04-01T19:36:01.184Z,68.80
2019-04-01T19:38:30.843Z,68.90
2019-04-01T19:41:00.245Z,69.50
2019-04-01T19:43:29.456Z,69.60
2019-04-01T19:45:58.699Z,69.60
2019-04-01T19:48:28.003Z,70.10
2019-04-01T19:50:59.090Z,70.20
2019-04-01T19:53:28.658Z,70.60
2019-04-01T19:55:58.177Z,70.50
2019-04-01T19:58:27.637Z,70.40
2019-04-01T20:00:56.891Z,70.60
2019-04-01T20:03:26.515Z,70.70
2019-04-01T20:05:56.114Z,70.80
2019-04-01T20:08:26.216Z,70.50
2019-04-01T20:10:57.626Z,70.10
2019-04-01T20:13:27.238Z,70.20
2019-04-01T20:15:56.759Z,70.40
2019-04-01T20:18:25.968Z,70.90
2019-04-01T20:20:55.201Z,71.40
2019-04-01T20:23:24.416Z,72.20
2019-04-01T20:25:53.623Z,73.00
2019-04-01T20:28:22.920Z,73.60
2019-04-01T20:30:52.145Z,74.10
2019-04-01T20:33:21.426Z,74.30
2019-04-01T20:35:50.999Z,74.50
2019-04-01T20:38:20.243Z,74.90
2019-04-01T20:40:49.434Z,75.10
2019-04-01T20:43:18.624Z,75.50
2019-04-01T20:45:48.152Z,75.30
2019-04-01T20:48:17.683Z,75.30
2019-04-01T20:50:46.956Z,75.30
2019-04-01T20:53:16.284Z,75.30
2019-04-01T20:55:48.358Z,75.50
2019-04-01T20:58:17.485Z,75.50
2019-04-01T21:00:46.756Z,75.60
2019-04-01T21:03:16.806Z,75.60
2019-04-01T21:05:46.066Z,75.70
2019-04-01T21:08:16.432Z,75.70
2019-04-01T21:10:46.477Z,75.70
2019-04-01T21:13:15.794Z,75.80
2019-04-01T21:15:45.434Z,75.80
2019-04-01T21:18:14.733Z,75.70
2019-04-01T21:20:44.050Z,75.80
2019-04-01T21:23:13.253Z,75.70
2019-04-01T21:25:42.780Z,75.60
2019-04-01T21:28:12.021Z,75.50
2019-04-01T21:30:41.291Z,75.50
2019-04-01T21:33:10.811Z,75.60
2019-04-01T21:35:40.007Z,75.30
2019-04-01T21:38:09.849Z,75.30
2019-04-01T21:40:39.071Z,75.90
2019-04-01T21:43:08.248Z,75.70
2019-04-01T21:45:37.495Z,76.10
2019-04-01T21:48:06.973Z,76.60
2019-04-01T21:50:36.788Z,77.00
2019-04-01T21:53:06.002Z,76.70
2019-04-01T21:55:35.228Z,76.60
2019-04-01T21:58:04.488Z,77.10
2019-04-01T22:00:51.327Z,77.50
2019-04-01T22:03:20.841Z,77.30
2019-04-01T22:05:50.420Z,77.00
2019-04-01T22:08:19.660Z,77.10
2019-04-01T22:10:49.057Z,77.50
2019-04-01T22:13:18.221Z,77.00
2019-04-01T22:15:47.773Z,77.30
2019-04-01T22:18:17.007Z,77.30
2019-04-01T22:20:46.632Z,77.60
2019-04-01T22:23:15.999Z,77.80
2019-04-01T22:25:45.267Z,78.00
2019-04-01T22:28:14.520Z,78.10
2019-04-01T22:30:43.755Z,77.90
2019-04-01T22:33:13.486Z,78.30
2019-04-01T22:35:42.840Z,78.10
2019-04-01T22:38:12.092Z,77.60
2019-04-01T22:40:41.731Z,77.40
2019-04-01T22:43:10.965Z,77.30
2019-04-01T22:45:40.235Z,77.20
2019-04-01T22:48:09.497Z,77.40
2019-04-01T22:50:39.530Z,77.60
2019-04-01T22:53:09.071Z,78.10
2019-04-01T22:55:38.592Z,78.50
2019-04-01T22:58:09.531Z,78.90
2019-04-01T23:00:38.978Z,79.10
2019-04-01T23:03:08.600Z,79.10
2019-04-01T23:05:37.893Z,79.20
2019-04-01T23:08:07.106Z,79.10
2019-04-01T23:10:36.350Z,79.40
2019-04-01T23:13:05.996Z,79.50
2019-04-01T23:15:37.484Z,79.70
2019-04-01T23:18:07.218Z,79.70
2019-04-01T23:21:10.685Z,79.80
2019-04-01T23:23:41.410Z,79.90
2019-04-01T23:26:11.043Z,80.00
2019-04-01T23:28:40.516Z,80.00
2019-04-01T23:31:20.557Z,79.90
2019-04-01T23:33:52.590Z,79.70
2019-04-01T23:36:26.746Z,79.90
2019-04-01T23:39:08.721Z,80.00
2019-04-01T23:41:40.790Z,80.40
2019-04-01T23:44:10.221Z,80.60
2019-04-01T23:46:40.199Z,80.80
2019-04-01T23:49:11.032Z,81.10
2019-04-01T23:51:40.751Z,81.20
2019-04-01T23:54:09.977Z,81.40
2019-04-01T23:56:39.502Z,81.50
2019-04-01T23:59:08.727Z,81.60
